createdAt,value
2019-01-24T00:01:19.243Z,34.80
2019-01-24T00:03:46.714Z,35.40
2019-01-24T00:06:14.735Z,34.10
2019-01-24T00:08:42.139Z,34.37
2019-01-24T00:11:09.643Z,34.97
2019-01-24T00:13:37.078Z,34.30
2019-01-24T00:16:04.924Z,36.30
2019-01-24T00:18:32.497Z,35.40
2019-01-24T00:20:59.997Z,35.90
2019-01-24T00:23:27.509Z,36.17
2019-01-24T00:25:54.929Z,37.57
2019-01-24T00:28:22.429Z,36.93
2019-01-24T00:30:49.859Z,34.53
2019-01-24T00:33:17.319Z,33.50
2019-01-24T00:35:44.773Z,35.17
2019-01-24T00:38:12.263Z,35.60
2019-01-24T00:40:39.833Z,35.33
2019-01-24T00:43:07.499Z,34.23
2019-01-24T00:45:34.962Z,35.27
2019-01-24T00:48:02.445Z,35.80
2019-01-24T00:50:29.833Z,34.43
2019-01-24T00:52:57.298Z,36.90
2019-01-24T00:55:24.757Z,36.47
2019-01-24T00:57:52.239Z,38.33
2019-01-24T01:00:22.637Z,36.47
2019-01-24T01:02:50.253Z,38.17
2019-01-24T01:05:17.939Z,35.17
2019-01-24T01:07:45.620Z,34.53
2019-01-24T01:10:13.176Z,35.03
2019-01-24T01:12:40.756Z,35.00
2019-01-24T01:15:11.118Z,36.60
2019-01-24T01:17:38.603Z,36.00
2019-01-24T01:20:08.363Z,35.93
2019-01-24T01:22:35.899Z,35.70
2019-01-24T01:25:05.134Z,36.47
2019-01-24T01:27:32.583Z,34.90
2019-01-24T01:30:00.038Z,36.63
2019-01-24T01:32:27.468Z,34.87
2019-01-24T01:34:54.956Z,36.30
2019-01-24T01:37:22.412Z,35.23
2019-01-24T01:39:49.898Z,37.87
2019-01-24T01:42:17.504Z,36.03
2019-01-24T01:44:44.985Z,35.33
2019-01-24T01:47:14.623Z,36.10
2019-01-24T01:49:42.128Z,35.50
2019-01-24T01:52:09.558Z,38.60
2019-01-24T01:54:37.062Z,38.43
2019-01-24T01:57:04.688Z,39.10
2019-01-24T01:59:32.189Z,38.10
2019-01-24T02:01:59.599Z,36.57
2019-01-24T02:04:27.073Z,37.53
2019-01-24T02:06:54.574Z,36.97
2019-01-24T02:09:22.043Z,36.27
2019-01-24T02:11:51.983Z,37.43
2019-01-24T02:14:19.468Z,38.60
2019-01-24T02:16:46.889Z,36.60
2019-01-24T02:19:14.338Z,36.33
2019-01-24T02:21:41.779Z,37.13
2019-01-24T02:24:09.253Z,35.87
2019-01-24T02:26:36.673Z,37.20
2019-01-24T02:29:04.195Z,37.83
2019-01-24T02:31:31.614Z,37.30
2019-01-24T02:33:59.091Z,37.57
2019-01-24T02:36:26.463Z,37.33
2019-01-24T02:38:53.964Z,36.90
2019-01-24T02:41:21.367Z,38.27
2019-01-24T02:43:48.835Z,36.67
2019-01-24T02:46:16.279Z,38.07
2019-01-24T02:48:43.763Z,37.50
2019-01-24T02:51:11.178Z,37.90
2019-01-24T02:53:38.680Z,38.90
2019-01-24T02:56:06.124Z,37.43
2019-01-24T02:58:33.513Z,38.43
2019-01-24T03:01:00.961Z,37.03
2019-01-24T03:03:28.434Z,39.20
2019-01-24T03:05:55.938Z,38.97
2019-01-24T03:08:23.428Z,38.40
2019-01-24T03:10:50.903Z,38.73
2019-01-24T03:13:18.322Z,36.47
2019-01-24T03:15:45.838Z,38.03
2019-01-24T03:18:13.369Z,40.93
2019-01-24T03:20:40.895Z,41.47
2019-01-24T03:23:08.393Z,40.17
2019-01-24T03:25:35.863Z,39.73
2019-01-24T03:28:03.513Z,38.80
2019-01-24T03:30:30.987Z,37.00
2019-01-24T03:32:58.371Z,41.77
2019-01-24T03:35:26.378Z,35.70
2019-01-24T03:37:53.924Z,35.87
2019-01-24T03:40:23.558Z,35.73
2019-01-24T03:42:51.018Z,38.70
2019-01-24T03:45:18.623Z,36.93
2019-01-24T03:47:46.339Z,36.57
2019-01-24T03:50:18.160Z,38.43
2019-01-24T03:52:45.683Z,35.80
2019-01-24T03:55:15.914Z,37.73
2019-01-24T03:57:43.308Z,39.90
2019-01-24T04:00:16.545Z,34.90
2019-01-24T04:02:44.073Z,34.83
2019-01-24T04:05:12.265Z,40.03
2019-01-24T04:07:39.776Z,37.77
2019-01-24T04:10:09.868Z,35.53
2019-01-24T04:12:39.540Z,37.80
2019-01-24T04:15:08.888Z,37.20
2019-01-24T04:17:36.362Z,33.20
2019-01-24T04:20:05.029Z,34.03
2019-01-24T04:22:32.468Z,36.77
2019-01-24T04:24:59.948Z,33.67
2019-01-24T04:27:27.354Z,34.87
2019-01-24T04:29:54.780Z,34.30
2019-01-24T04:32:22.262Z,34.63
2019-01-24T04:34:49.683Z,34.57
2019-01-24T04:37:17.188Z,33.87
2019-01-24T04:39:44.563Z,33.53
2019-01-24T04:42:12.029Z,34.50
2019-01-24T04:44:39.413Z,35.20
2019-01-24T04:47:06.899Z,32.43
2019-01-24T04:49:34.353Z,38.40
2019-01-24T04:52:01.838Z,35.10
2019-01-24T04:54:29.258Z,34.47
2019-01-24T04:56:56.753Z,34.47
2019-01-24T04:59:24.164Z,35.40
2019-01-24T05:01:51.643Z,37.07
2019-01-24T05:04:19.115Z,32.53
2019-01-24T05:06:46.675Z,32.73
2019-01-24T05:09:14.081Z,33.73
2019-01-24T05:11:41.541Z,37.23
2019-01-24T05:14:08.933Z,37.33
2019-01-24T05:16:36.383Z,41.53
2019-01-24T05:19:03.970Z,35.17
2019-01-24T05:21:31.419Z,33.93
2019-01-24T05:23:58.873Z,30.67
2019-01-24T05:26:26.335Z,32.50
2019-01-24T05:28:53.764Z,30.97
2019-01-24T05:31:21.285Z,32.67
2019-01-24T05:33:48.728Z,34.53
2019-01-24T05:36:16.219Z,31.87
2019-01-24T05:38:43.643Z,34.97
2019-01-24T05:41:11.154Z,33.87
2019-01-24T05:43:38.583Z,33.67
2019-01-24T05:46:06.038Z,37.90
2019-01-24T05:48:39.489Z,42.23
2019-01-24T05:51:06.959Z,36.53
2019-01-24T05:53:34.399Z,40.87
2019-01-24T05:56:03.020Z,36.80
2019-01-24T05:58:30.423Z,44.37
2019-01-24T06:00:57.907Z,37.03
2019-01-24T06:03:25.312Z,40.30
2019-01-24T06:05:52.758Z,43.53
2019-01-24T06:08:20.204Z,35.63
2019-01-24T06:10:47.678Z,43.13
2019-01-24T06:13:17.698Z,37.43
2019-01-24T06:15:45.277Z,36.23
2019-01-24T06:18:12.673Z,38.20
2019-01-24T06:20:40.129Z,38.47
2019-01-24T06:23:17.607Z,35.63
2019-01-24T06:25:45.098Z,36.63
2019-01-24T06:28:18.786Z,34.57
2019-01-24T06:30:46.421Z,33.30
2019-01-24T06:37:47.081Z,33.83
2019-01-24T06:41:33.782Z,35.90
2019-01-24T06:45:07.532Z,36.37
2019-01-24T06:48:05.140Z,38.63
2019-01-24T06:58:50.617Z,34.33
2019-01-24T07:06:24.812Z,34.40
2019-01-24T07:09:47.307Z,36.33
2019-01-24T07:13:32.467Z,34.87
2019-01-24T07:16:42.613Z,35.97
2019-01-24T07:20:00.503Z,34.57
2019-01-24T07:23:32.091Z,37.90
2019-01-24T07:30:40.342Z,36.27
2019-01-24T07:34:17.721Z,35.97
2019-01-24T07:37:46.842Z,35.43
2019-01-24T07:40:45.118Z,37.53
2019-01-24T07:43:36.363Z,38.87
2019-01-24T07:46:29.057Z,35.13
2019-01-24T07:49:23.847Z,34.40
2019-01-24T07:52:11.507Z,34.27
2019-01-24T07:55:14.421Z,35.97
2019-01-24T07:57:37.671Z,32.77
2019-01-24T08:00:55.692Z,35.27
2019-01-24T08:04:09.553Z,38.60
2019-01-24T08:07:14.030Z,33.13
2019-01-24T08:09:54.647Z,33.53
2019-01-24T08:12:45.143Z,35.73
2019-01-24T08:16:00.470Z,32.77
2019-01-24T08:19:13.692Z,31.97
2019-01-24T08:25:52.972Z,32.10
2019-01-24T08:29:00.943Z,32.73
2019-01-24T08:31:40.437Z,33.47
2019-01-24T08:34:24.915Z,30.33
2019-01-24T08:37:21.193Z,30.53
2019-01-24T08:40:18.292Z,31.57
2019-01-24T08:46:38.058Z,30.87
2019-01-24T08:49:56.984Z,31.63
2019-01-24T08:58:09.577Z,29.80
2019-01-24T09:03:31.813Z,31.90
2019-01-24T09:13:24.892Z,32.60
2019-01-24T09:16:09.237Z,34.27
2019-01-24T09:19:06.562Z,31.27
2019-01-24T09:26:15.818Z,31.90
2019-01-24T09:29:05.337Z,33.23
2019-01-24T09:32:07.061Z,29.87
2019-01-24T09:34:50.153Z,31.33
2019-01-24T09:37:26.012Z,31.37
2019-01-24T09:40:04.080Z,29.63
2019-01-24T09:42:47.180Z,30.20
2019-01-24T09:45:46.864Z,29.57
2019-01-24T09:55:39.984Z,30.53
2019-01-24T09:58:46.017Z,32.00
2019-01-24T10:01:31.853Z,29.40
2019-01-24T10:04:19.919Z,31.47
2019-01-24T10:07:17.952Z,29.40
2019-01-24T10:17:40.862Z,31.03
2019-01-24T10:24:29.038Z,29.90
2019-01-24T10:27:50.387Z,31.40
2019-01-24T10:40:03.473Z,27.63
2019-01-24T10:43:11.966Z,28.97
2019-01-24T10:50:29.442Z,20.47
2019-01-24T10:53:43.140Z,23.17
2019-01-24T10:57:21.114Z,17.57
2019-01-24T11:00:34.183Z,24.77
2019-01-24T11:07:51.074Z,23.60
2019-01-24T11:15:29.302Z,25.57
2019-01-24T11:18:53.798Z,25.07
2019-01-24T11:27:56.306Z,24.27
2019-01-24T11:34:10.517Z,24.87
2019-01-24T11:37:16.123Z,24.87
2019-01-24T11:40:39.042Z,24.90
2019-01-24T11:44:58.812Z,26.37
2019-01-24T11:48:49.829Z,23.47
2019-01-24T11:59:29.359Z,25.93
2019-01-24T12:03:00.258Z,26.10
2019-01-24T12:06:16.305Z,26.80
2019-01-24T12:14:01.017Z,25.67
2019-01-24T12:18:05.990Z,27.07
2019-01-24T12:20:58.013Z,26.93
2019-01-24T12:23:58.456Z,27.57
2019-01-24T12:30:59.593Z,25.60
2019-01-24T12:46:00.322Z,25.43
2019-01-24T12:49:05.614Z,26.13
2019-01-24T12:54:39.792Z,26.07
2019-01-24T12:57:11.202Z,25.17
2019-01-24T13:00:32.586Z,25.10
2019-01-24T13:03:18.861Z,25.40
2019-01-24T13:10:16.538Z,27.33
2019-01-24T13:13:31.144Z,25.10
2019-01-24T13:17:00.394Z,22.40
2019-01-24T13:20:03.793Z,23.00
2019-01-24T13:23:18.036Z,24.90
2019-01-24T13:26:14.017Z,25.10
2019-01-24T13:29:17.204Z,25.30
2019-01-24T13:32:20.140Z,24.80
2019-01-24T13:35:32.227Z,24.67
2019-01-24T13:39:09.613Z,24.83
2019-01-24T13:45:53.569Z,26.67
2019-01-24T13:48:46.253Z,24.53
2019-01-24T13:51:43.262Z,25.23
2019-01-24T13:57:59.145Z,26.10
2019-01-24T14:04:30.191Z,29.70
2019-01-24T14:07:45.581Z,28.03
2019-01-24T14:10:47.711Z,29.27
2019-01-24T14:13:43.251Z,31.83
2019-01-24T14:19:49.672Z,29.80
2019-01-24T14:22:52.452Z,29.83
2019-01-24T14:25:59.784Z,29.27
2019-01-24T14:28:46.577Z,31.50
2019-01-24T14:31:34.508Z,29.73
2019-01-24T14:41:14.333Z,29.90
2019-01-24T14:44:15.252Z,32.87
2019-01-24T14:47:04.652Z,29.87
2019-01-24T14:50:07.358Z,31.20
2019-01-24T14:53:29.396Z,31.73
2019-01-24T14:56:12.973Z,32.17
2019-01-24T14:59:22.897Z,31.63
2019-01-24T15:02:28.641Z,28.83
2019-01-24T15:05:09.127Z,32.10
2019-01-24T15:08:14.814Z,32.30
2019-01-24T15:11:26.257Z,32.40
2019-01-24T15:19:14.315Z,31.40
2019-01-24T15:25:27.497Z,31.00
2019-01-24T15:29:14.047Z,30.73
2019-01-24T15:51:15.826Z,32.63
2019-01-24T15:53:54.244Z,31.67
2019-01-24T15:56:45.725Z,35.27
2019-01-24T15:59:29.232Z,34.07
2019-01-24T16:02:18.767Z,34.40
2019-01-24T16:05:37.638Z,34.30
2019-01-24T16:13:01.221Z,32.33
2019-01-24T16:15:39.792Z,31.67
2019-01-24T16:18:23.986Z,32.07
2019-01-24T16:20:52.072Z,33.73
2019-01-24T16:23:22.202Z,35.17
2019-01-24T16:25:50.526Z,34.90
2019-01-24T16:28:28.690Z,33.30
2019-01-24T16:31:11.956Z,32.73
2019-01-24T16:34:25.545Z,33.57
2019-01-24T17:03:58.322Z,35.33
2019-01-24T17:06:38.903Z,35.37
2019-01-24T17:09:22.188Z,33.67
2019-01-24T17:12:01.285Z,34.30
2019-01-24T17:15:00.950Z,38.30
2019-01-24T17:17:47.385Z,36.43
2019-01-24T17:21:05.033Z,35.67
2019-01-24T17:24:08.105Z,35.83
2019-01-24T17:27:34.008Z,34.00
2019-01-24T17:30:24.065Z,35.23
2019-01-24T17:33:14.705Z,37.03
2019-01-24T17:35:52.395Z,38.10
2019-01-24T17:38:23.869Z,37.93
2019-01-24T17:41:03.270Z,36.20
2019-01-24T17:43:37.527Z,37.43
2019-01-24T17:46:08.421Z,35.17
2019-01-24T17:48:43.810Z,37.37
2019-01-24T17:51:15.611Z,36.97
2019-01-24T17:53:52.855Z,36.73
2019-01-24T17:56:24.106Z,36.67
2019-01-24T17:58:58.967Z,35.13
2019-01-24T18:01:27.880Z,37.13
2019-01-24T18:04:04.240Z,36.37
2019-01-24T18:06:50.562Z,35.07
2019-01-24T18:09:24.496Z,37.43
2019-01-24T18:11:57.861Z,35.40
2019-01-24T18:14:59.114Z,36.73
2019-01-24T18:18:02.950Z,35.43
2019-01-24T18:24:36.725Z,34.80
2019-01-24T18:34:43.845Z,35.60
2019-01-24T18:38:02.446Z,36.37
2019-01-24T18:40:53.020Z,36.10
2019-01-24T18:47:24.541Z,36.63
2019-01-24T18:50:12.476Z,37.33
2019-01-24T18:53:21.180Z,35.40
2019-01-24T18:56:05.305Z,36.97
2019-01-24T18:59:16.507Z,38.00
2019-01-24T19:09:33.568Z,37.70
2019-01-24T19:12:39.925Z,36.90
2019-01-24T19:16:17.651Z,36.07
2019-01-24T19:18:59.631Z,37.80
2019-01-24T19:22:32.390Z,39.00
2019-01-24T19:24:31.353Z,39.20
2019-01-24T19:27:53.333Z,42.27
2019-01-24T19:30:35.245Z,35.73
2019-01-24T19:33:47.090Z,37.30
2019-01-24T19:36:47.854Z,36.90
2019-01-24T19:40:31.290Z,37.33
2019-01-24T19:43:30.736Z,37.07
2019-01-24T19:50:58.058Z,38.13
2019-01-24T19:53:32.941Z,35.70
2019-01-24T19:56:18.979Z,36.07
2019-01-24T19:59:12.632Z,36.33
2019-01-24T20:04:21.590Z,38.60
2019-01-24T20:05:36.975Z,36.20
2019-01-24T20:08:29.656Z,37.03
2019-01-24T20:11:04.208Z,35.23
2019-01-24T20:13:47.078Z,35.30
2019-01-24T20:16:33.845Z,34.87
2019-01-24T20:19:41.981Z,34.93
2019-01-24T20:23:14.005Z,36.10
2019-01-24T20:30:12.992Z,35.87
2019-01-24T20:33:15.384Z,36.40
2019-01-24T20:36:15.322Z,38.40
2019-01-24T20:39:44.175Z,35.70
2019-01-24T20:46:33.199Z,36.27
2019-01-24T20:49:45.936Z,34.83
2019-01-24T20:52:21.110Z,37.30
2019-01-24T20:55:33.165Z,37.10
2019-01-24T20:58:31.904Z,35.83
2019-01-24T21:01:59.479Z,32.50
2019-01-24T21:05:10.328Z,34.97
2019-01-24T21:08:14.663Z,31.43
2019-01-24T21:14:53.243Z,34.97
2019-01-24T21:17:57.736Z,32.07
2019-01-24T21:20:48.209Z,33.73
2019-01-24T21:23:16.001Z,33.20
2019-01-24T21:25:43.882Z,33.10
2019-01-24T21:28:11.719Z,33.97
2019-01-24T21:30:39.671Z,33.00
2019-01-24T21:33:07.967Z,28.37
2019-01-24T21:35:35.946Z,34.57
2019-01-24T21:38:05.411Z,31.50
2019-01-24T21:40:33.242Z,33.67
2019-01-24T21:43:01.027Z,33.73
2019-01-24T21:45:31.056Z,31.43
2019-01-24T21:48:05.183Z,32.63
2019-01-24T21:50:33.036Z,24.13
2019-01-24T21:53:00.552Z,33.63
2019-01-24T21:55:28.232Z,25.27
2019-01-24T21:57:55.757Z,29.93
2019-01-24T22:00:24.691Z,29.73
2019-01-24T22:02:52.311Z,30.40
2019-01-24T22:05:20.346Z,29.47
2019-01-24T22:07:48.017Z,30.47
2019-01-24T22:10:18.062Z,27.97
2019-01-24T22:12:45.953Z,30.57
2019-01-24T22:15:15.466Z,31.17
2019-01-24T22:18:11.676Z,29.73
2019-01-24T22:20:39.206Z,29.70
2019-01-24T22:23:06.951Z,32.57
2019-01-24T22:25:35.261Z,29.97
2019-01-24T22:28:03.328Z,27.27
2019-01-24T22:30:36.571Z,31.33
2019-01-24T22:33:04.531Z,28.20
2019-01-24T22:35:47.666Z,28.73
2019-01-24T22:38:15.172Z,30.60
2019-01-24T22:40:42.661Z,29.30
2019-01-24T22:43:10.331Z,28.87
2019-01-24T22:45:37.877Z,31.87
2019-01-24T22:48:06.234Z,29.47
2019-01-24T22:50:33.801Z,32.57
2019-01-24T22:53:07.991Z,32.13
2019-01-24T22:55:35.562Z,32.60
2019-01-24T22:58:03.191Z,32.17
2019-01-24T23:01:11.107Z,31.23
2019-01-24T23:03:46.701Z,30.47
2019-01-24T23:06:23.705Z,30.47
2019-01-24T23:08:51.301Z,18.47
2019-01-24T23:11:18.856Z,27.23
2019-01-24T23:13:46.604Z,29.87
2019-01-24T23:16:14.228Z,22.17
2019-01-24T23:18:41.722Z,31.03
2019-01-24T23:21:09.291Z,30.20
2019-01-24T23:23:36.876Z,30.57
2019-01-24T23:26:04.926Z,30.30
2019-01-24T23:29:28.662Z,20.07
2019-01-24T23:31:56.242Z,25.20
2019-01-24T23:34:25.857Z,27.63
2019-01-24T23:36:53.502Z,29.90
2019-01-24T23:39:21.037Z,29.20
2019-01-24T23:41:53.881Z,30.83
2019-01-24T23:44:24.172Z,30.40
2019-01-24T23:46:54.832Z,31.77
2019-01-24T23:49:22.326Z,31.37
2019-01-24T23:51:49.892Z,31.53
2019-01-24T23:54:17.631Z,29.50
2019-01-24T23:56:45.145Z,30.90
2019-01-24T23:59:12.684Z,31.30
